sensor_id;sensor_type;location;lat;lon;timestamp;temperature;humidity
34498;DHT22;20744;50.938;7.286;2022-12-29T00:01:49;10.10;99.90
34498;DHT22;20744;50.938;7.286;2022-12-29T00:06:43;10.20;99.90
34498;DHT22;20744;50.938;7.286;2022-12-29T00:09:11;10.20;99.90
34498;DHT22;20744;50.938;7.286;2022-12-29T00:11:39;10.30;99.90
34498;DHT22;20744;50.938;7.286;2022-12-29T00:14:08;10.30;99.90
34498;DHT22;20744;50.938;7.286;2022-12-29T00:16:52;10.30;99.90
34498;DHT22;20744;50.938;7.286;2022-12-29T00:19:19;10.10;99.90
34498;DHT22;20744;50.938;7.286;2022-12-29T00:22:04;10.10;99.90
34498;DHT22;20744;50.938;7.286;2022-12-29T00:24:48;10.00;99.90
34498;DHT22;20744;50.938;7.286;2022-12-29T00:27:34;9.90;99.90
34498;DHT22;20744;50.938;7.286;2022-12-29T00:30:20;9.90;99.90
34498;DHT22;20744;50.938;7.286;2022-12-29T00:33:09;10.00;99.90
34498;DHT22;20744;50.938;7.286;2022-12-29T00:35:56;10.00;99.90
34498;DHT22;20744;50.938;7.286;2022-12-29T00:38:24;10.10;99.90
34498;DHT22;20744;50.938;7.286;2022-12-29T00:41:23;10.10;99.90
34498;DHT22;20744;50.938;7.286;2022-12-29T00:44:13;10.10;99.90
34498;DHT22;20744;50.938;7.286;2022-12-29T00:46:41;10.20;99.90
34498;DHT22;20744;50.938;7.286;2022-12-29T00:49:10;10.20;99.90
34498;DHT22;20744;50.938;7.286;2022-12-29T00:51:56;10.30;99.90
34498;DHT22;20744;50.938;7.286;2022-12-29T00:56:51;10.40;99.90
34498;DHT22;20744;50.938;7.286;2022-12-29T00:59:20;10.60;99.90
34498;DHT22;20744;50.938;7.286;2022-12-29T01:01:50;10.50;99.90
34498;DHT22;20744;50.938;7.286;2022-12-29T01:04:17;10.40;99.90
34498;DHT22;20744;50.938;7.286;2022-12-29T01:06:44;10.50;99.90
34498;DHT22;20744;50.938;7.286;2022-12-29T01:09:11;10.60;99.90
34498;DHT22;20744;50.938;7.286;2022-12-29T01:11:56;10.60;99.90
34498;DHT22;20744;50.938;7.286;2022-12-29T01:14:24;10.60;99.90
34498;DHT22;20744;50.938;7.286;2022-12-29T01:16:51;10.70;99.90
34498;DHT22;20744;50.938;7.286;2022-12-29T01:19:19;10.70;99.90
34498;DHT22;20744;50.938;7.286;2022-12-29T01:21:46;10.60;99.90
34498;DHT22;20744;50.938;7.286;2022-12-29T01:24:14;10.60;99.90
34498;DHT22;20744;50.938;7.286;2022-12-29T01:26:41;10.50;99.90
34498;DHT22;20744;50.938;7.286;2022-12-29T01:29:09;10.50;99.90
34498;DHT22;20744;50.938;7.286;2022-12-29T01:31:37;10.50;99.90
34498;DHT22;20744;50.938;7.286;2022-12-29T01:34:05;10.60;99.90
34498;DHT22;20744;50.938;7.286;2022-12-29T01:36:32;10.60;99.90
34498;DHT22;20744;50.938;7.286;2022-12-29T01:38:59;10.50;99.90
34498;DHT22;20744;50.938;7.286;2022-12-29T01:41:26;10.50;99.90
34498;DHT22;20744;50.938;7.286;2022-12-29T01:43:54;10.50;99.90
34498;DHT22;20744;50.938;7.286;2022-12-29T01:46:28;10.50;99.90
34498;DHT22;20744;50.938;7.286;2022-12-29T01:48:59;10.40;99.90
34498;DHT22;20744;50.938;7.286;2022-12-29T01:51:28;10.50;99.90
34498;DHT22;20744;50.938;7.286;2022-12-29T01:53:58;10.50;99.90
34498;DHT22;20744;50.938;7.286;2022-12-29T01:56:27;10.40;99.90
34498;DHT22;20744;50.938;7.286;2022-12-29T01:58:57;10.50;99.90
34498;DHT22;20744;50.938;7.286;2022-12-29T02:01:25;10.50;99.90
34498;DHT22;20744;50.938;7.286;2022-12-29T02:03:52;10.50;99.90
34498;DHT22;20744;50.938;7.286;2022-12-29T02:06:22;10.60;99.90
34498;DHT22;20744;50.938;7.286;2022-12-29T02:08:52;10.60;99.90
34498;DHT22;20744;50.938;7.286;2022-12-29T02:13:49;10.60;99.90
34498;DHT22;20744;50.938;7.286;2022-12-29T02:16:27;10.60;99.90
34498;DHT22;20744;50.938;7.286;2022-12-29T02:19:08;10.70;99.90
34498;DHT22;20744;50.938;7.286;2022-12-29T02:21:58;10.70;99.90
34498;DHT22;20744;50.938;7.286;2022-12-29T02:25:12;10.70;99.90
34498;DHT22;20744;50.938;7.286;2022-12-29T02:27:54;10.60;99.90
34498;DHT22;20744;50.938;7.286;2022-12-29T02:30:36;10.60;99.90
34498;DHT22;20744;50.938;7.286;2022-12-29T02:33:09;10.60;99.90
34498;DHT22;20744;50.938;7.286;2022-12-29T02:35:44;10.60;99.90
34498;DHT22;20744;50.938;7.286;2022-12-29T02:38:22;10.60;99.90
34498;DHT22;20744;50.938;7.286;2022-12-29T02:40:54;10.50;99.90
34498;DHT22;20744;50.938;7.286;2022-12-29T02:43:26;10.50;99.90
34498;DHT22;20744;50.938;7.286;2022-12-29T02:46:06;10.50;99.90
34498;DHT22;20744;50.938;7.286;2022-12-29T02:48:40;10.60;99.90
34498;DHT22;20744;50.938;7.286;2022-12-29T02:51:12;10.50;99.90
34498;DHT22;20744;50.938;7.286;2022-12-29T02:53:43;10.50;99.90
34498;DHT22;20744;50.938;7.286;2022-12-29T02:56:28;10.50;99.90
34498;DHT22;20744;50.938;7.286;2022-12-29T02:58:55;10.50;99.90
34498;DHT22;20744;50.938;7.286;2022-12-29T03:01:33;10.50;99.90
34498;DHT22;20744;50.938;7.286;2022-12-29T03:04:18;10.60;99.90
34498;DHT22;20744;50.938;7.286;2022-12-29T03:06:55;10.60;99.90
34498;DHT22;20744;50.938;7.286;2022-12-29T03:09:33;10.60;99.90
34498;DHT22;20744;50.938;7.286;2022-12-29T03:12:11;10.60;99.90
34498;DHT22;20744;50.938;7.286;2022-12-29T03:14:55;10.70;99.90
34498;DHT22;20744;50.938;7.286;2022-12-29T03:17:50;10.70;99.90
34498;DHT22;20744;50.938;7.286;2022-12-29T03:20:20;10.70;99.90
34498;DHT22;20744;50.938;7.286;2022-12-29T03:22:49;10.70;99.90
34498;DHT22;20744;50.938;7.286;2022-12-29T03:25:22;10.70;99.90
34498;DHT22;20744;50.938;7.286;2022-12-29T03:27:53;10.80;99.90
34498;DHT22;20744;50.938;7.286;2022-12-29T03:30:22;10.70;99.90
34498;DHT22;20744;50.938;7.286;2022-12-29T03:32:54;10.80;99.90
34498;DHT22;20744;50.938;7.286;2022-12-29T03:35:25;10.80;99.90
34498;DHT22;20744;50.938;7.286;2022-12-29T03:37:58;10.70;99.90
34498;DHT22;20744;50.938;7.286;2022-12-29T03:40:27;10.80;99.90
34498;DHT22;20744;50.938;7.286;2022-12-29T03:42:56;10.80;99.90
34498;DHT22;20744;50.938;7.286;2022-12-29T03:45:23;10.80;99.90
34498;DHT22;20744;50.938;7.286;2022-12-29T03:47:52;10.70;99.90
34498;DHT22;20744;50.938;7.286;2022-12-29T03:50:19;10.80;99.90
34498;DHT22;20744;50.938;7.286;2022-12-29T03:52:46;10.90;99.90
34498;DHT22;20744;50.938;7.286;2022-12-29T03:55:13;11.00;99.90
34498;DHT22;20744;50.938;7.286;2022-12-29T03:57:40;11.00;99.90
34498;DHT22;20744;50.938;7.286;2022-12-29T04:00:08;10.90;99.90
34498;DHT22;20744;50.938;7.286;2022-12-29T04:02:36;10.90;99.90
34498;DHT22;20744;50.938;7.286;2022-12-29T04:05:05;10.90;99.90
34498;DHT22;20744;50.938;7.286;2022-12-29T04:07:32;10.90;99.90
34498;DHT22;20744;50.938;7.286;2022-12-29T04:09:59;10.90;99.90
34498;DHT22;20744;50.938;7.286;2022-12-29T04:12:26;10.80;99.90
34498;DHT22;20744;50.938;7.286;2022-12-29T04:14:53;10.90;99.90
34498;DHT22;20744;50.938;7.286;2022-12-29T04:17:20;10.90;99.90
34498;DHT22;20744;50.938;7.286;2022-12-29T04:19:47;10.90;99.90
34498;DHT22;20744;50.938;7.286;2022-12-29T04:22:15;10.90;99.90
34498;DHT22;20744;50.938;7.286;2022-12-29T04:24:41;10.90;99.90
34498;DHT22;20744;50.938;7.286;2022-12-29T04:27:08;10.90;99.90
34498;DHT22;20744;50.938;7.286;2022-12-29T04:29:35;10.90;99.90
34498;DHT22;20744;50.938;7.286;2022-12-29T04:32:02;10.90;99.90
34498;DHT22;20744;50.938;7.286;2022-12-29T04:34:28;10.90;99.90
34498;DHT22;20744;50.938;7.286;2022-12-29T04:36:55;10.90;99.90
34498;DHT22;20744;50.938;7.286;2022-12-29T04:39:24;10.90;99.90
34498;DHT22;20744;50.938;7.286;2022-12-29T04:41:50;10.90;99.90
34498;DHT22;20744;50.938;7.286;2022-12-29T04:44:17;11.00;99.90
34498;DHT22;20744;50.938;7.286;2022-12-29T04:46:44;11.00;99.90
34498;DHT22;20744;50.938;7.286;2022-12-29T04:49:11;11.00;99.90
34498;DHT22;20744;50.938;7.286;2022-12-29T04:51:38;11.00;99.90
34498;DHT22;20744;50.938;7.286;2022-12-29T04:54:05;10.90;99.90
34498;DHT22;20744;50.938;7.286;2022-12-29T04:56:33;10.90;99.90
34498;DHT22;20744;50.938;7.286;2022-12-29T04:59:00;10.90;99.90
34498;DHT22;20744;50.938;7.286;2022-12-29T05:01:27;10.90;99.90
34498;DHT22;20744;50.938;7.286;2022-12-29T05:03:53;10.90;99.90
34498;DHT22;20744;50.938;7.286;2022-12-29T05:06:20;10.80;99.90
34498;DHT22;20744;50.938;7.286;2022-12-29T05:08:47;10.80;99.90
34498;DHT22;20744;50.938;7.286;2022-12-29T05:11:14;10.70;99.90
34498;DHT22;20744;50.938;7.286;2022-12-29T05:13:45;10.70;99.90
34498;DHT22;20744;50.938;7.286;2022-12-29T05:16:11;10.60;99.90
34498;DHT22;20744;50.938;7.286;2022-12-29T05:18:38;10.60;99.90
34498;DHT22;20744;50.938;7.286;2022-12-29T05:21:05;10.60;99.90
34498;DHT22;20744;50.938;7.286;2022-12-29T05:23:32;10.70;99.90
34498;DHT22;20744;50.938;7.286;2022-12-29T05:25:59;10.70;99.90
34498;DHT22;20744;50.938;7.286;2022-12-29T05:28:26;10.70;99.90
34498;DHT22;20744;50.938;7.286;2022-12-29T05:30:54;10.70;99.90
34498;DHT22;20744;50.938;7.286;2022-12-29T05:33:21;10.70;99.90
34498;DHT22;20744;50.938;7.286;2022-12-29T05:35:48;10.60;99.90
34498;DHT22;20744;50.938;7.286;2022-12-29T05:38:15;10.60;99.90
34498;DHT22;20744;50.938;7.286;2022-12-29T05:40:43;10.60;99.90
34498;DHT22;20744;50.938;7.286;2022-12-29T05:43:09;10.50;99.90
34498;DHT22;20744;50.938;7.286;2022-12-29T05:45:36;10.50;99.90
34498;DHT22;20744;50.938;7.286;2022-12-29T05:48:05;10.50;99.90
34498;DHT22;20744;50.938;7.286;2022-12-29T05:50:32;10.50;99.90
34498;DHT22;20744;50.938;7.286;2022-12-29T05:52:59;10.50;99.90
34498;DHT22;20744;50.938;7.286;2022-12-29T05:55:25;10.50;99.90
34498;DHT22;20744;50.938;7.286;2022-12-29T05:57:53;10.40;99.90
34498;DHT22;20744;50.938;7.286;2022-12-29T06:00:20;10.50;99.90
34498;DHT22;20744;50.938;7.286;2022-12-29T07:28:49;10.60;99.90
34498;DHT22;20744;50.938;7.286;2022-12-29T07:31:20;10.60;99.90
34498;DHT22;20744;50.938;7.286;2022-12-29T07:33:47;10.60;99.90
34498;DHT22;20744;50.938;7.286;2022-12-29T07:36:15;10.60;99.90
34498;DHT22;20744;50.938;7.286;2022-12-29T07:38:42;10.70;99.90
34498;DHT22;20744;50.938;7.286;2022-12-29T07:41:09;10.60;99.90
34498;DHT22;20744;50.938;7.286;2022-12-29T07:43:36;10.60;99.90
34498;DHT22;20744;50.938;7.286;2022-12-29T07:46:03;10.60;99.90
34498;DHT22;20744;50.938;7.286;2022-12-29T07:48:32;10.60;99.90
34498;DHT22;20744;50.938;7.286;2022-12-29T07:51:01;10.50;99.90
34498;DHT22;20744;50.938;7.286;2022-12-29T07:53:28;10.50;99.90
34498;DHT22;20744;50.938;7.286;2022-12-29T07:55:56;10.50;99.90
34498;DHT22;20744;50.938;7.286;2022-12-29T07:58:22;10.50;99.90
34498;DHT22;20744;50.938;7.286;2022-12-29T08:00:53;10.50;99.90
34498;DHT22;20744;50.938;7.286;2022-12-29T08:03:20;10.40;99.90
34498;DHT22;20744;50.938;7.286;2022-12-29T08:05:48;10.40;99.90
34498;DHT22;20744;50.938;7.286;2022-12-29T08:08:15;10.50;99.90
34498;DHT22;20744;50.938;7.286;2022-12-29T08:10:42;10.50;99.90
34498;DHT22;20744;50.938;7.286;2022-12-29T08:13:09;10.40;99.90
34498;DHT22;20744;50.938;7.286;2022-12-29T08:15:38;10.50;99.90
34498;DHT22;20744;50.938;7.286;2022-12-29T08:18:05;10.50;99.90
34498;DHT22;20744;50.938;7.286;2022-12-29T08:20:32;10.40;99.90
34498;DHT22;20744;50.938;7.286;2022-12-29T08:23:00;10.40;99.90
34498;DHT22;20744;50.938;7.286;2022-12-29T08:25:27;10.40;99.90
34498;DHT22;20744;50.938;7.286;2022-12-29T08:27:54;10.50;99.90
34498;DHT22;20744;50.938;7.286;2022-12-29T08:30:21;10.40;99.90
34498;DHT22;20744;50.938;7.286;2022-12-29T08:32:47;10.40;99.90
34498;DHT22;20744;50.938;7.286;2022-12-29T08:35:14;10.40;99.90
34498;DHT22;20744;50.938;7.286;2022-12-29T08:37:41;10.40;99.90
34498;DHT22;20744;50.938;7.286;2022-12-29T08:40:11;10.40;99.90
34498;DHT22;20744;50.938;7.286;2022-12-29T08:42:39;10.40;99.90
34498;DHT22;20744;50.938;7.286;2022-12-29T08:45:07;10.40;99.90
34498;DHT22;20744;50.938;7.286;2022-12-29T08:47:34;10.30;99.90
34498;DHT22;20744;50.938;7.286;2022-12-29T08:50:01;10.30;99.90
34498;DHT22;20744;50.938;7.286;2022-12-29T08:52:28;10.30;99.90
34498;DHT22;20744;50.938;7.286;2022-12-29T08:54:55;10.30;99.90
34498;DHT22;20744;50.938;7.286;2022-12-29T08:57:23;10.30;99.90
34498;DHT22;20744;50.938;7.286;2022-12-29T08:59:50;10.30;99.90
34498;DHT22;20744;50.938;7.286;2022-12-29T09:02:17;10.30;99.90
34498;DHT22;20744;50.938;7.286;2022-12-29T09:04:44;10.30;99.90
34498;DHT22;20744;50.938;7.286;2022-12-29T09:07:11;10.30;99.90
34498;DHT22;20744;50.938;7.286;2022-12-29T09:09:37;10.40;99.90
34498;DHT22;20744;50.938;7.286;2022-12-29T09:12:05;10.40;99.90
34498;DHT22;20744;50.938;7.286;2022-12-29T09:14:33;10.30;99.90
34498;DHT22;20744;50.938;7.286;2022-12-29T09:17:00;10.30;99.90
34498;DHT22;20744;50.938;7.286;2022-12-29T09:19:44;10.20;99.90
34498;DHT22;20744;50.938;7.286;2022-12-29T09:22:11;10.20;99.90
34498;DHT22;20744;50.938;7.286;2022-12-29T09:24:38;10.10;99.90
34498;DHT22;20744;50.938;7.286;2022-12-29T09:27:05;10.10;99.90
34498;DHT22;20744;50.938;7.286;2022-12-29T09:29:33;10.20;99.90
34498;DHT22;20744;50.938;7.286;2022-12-29T09:32:00;10.10;99.90
34498;DHT22;20744;50.938;7.286;2022-12-29T09:34:27;10.10;99.90
34498;DHT22;20744;50.938;7.286;2022-12-29T09:36:54;10.20;99.90
34498;DHT22;20744;50.938;7.286;2022-12-29T09:39:22;10.20;99.90
34498;DHT22;20744;50.938;7.286;2022-12-29T09:41:56;10.20;99.90
34498;DHT22;20744;50.938;7.286;2022-12-29T09:44:31;10.30;99.90
34498;DHT22;20744;50.938;7.286;2022-12-29T09:47:09;10.40;99.90
34498;DHT22;20744;50.938;7.286;2022-12-29T09:49:42;10.40;99.90
34498;DHT22;20744;50.938;7.286;2022-12-29T09:52:14;10.30;99.90
34498;DHT22;20744;50.938;7.286;2022-12-29T09:54:48;10.40;99.90
34498;DHT22;20744;50.938;7.286;2022-12-29T09:57:20;10.40;99.90
34498;DHT22;20744;50.938;7.286;2022-12-29T09:59:50;10.50;99.90
34498;DHT22;20744;50.938;7.286;2022-12-29T10:02:34;10.50;99.90
34498;DHT22;20744;50.938;7.286;2022-12-29T10:05:04;10.60;99.90
34498;DHT22;20744;50.938;7.286;2022-12-29T10:07:47;10.60;99.90
34498;DHT22;20744;50.938;7.286;2022-12-29T10:10:24;10.60;99.90
34498;DHT22;20744;50.938;7.286;2022-12-29T10:13:01;10.60;99.90
34498;DHT22;20744;50.938;7.286;2022-12-29T10:15:49;10.60;99.90
34498;DHT22;20744;50.938;7.286;2022-12-29T10:18:38;10.60;99.90
34498;DHT22;20744;50.938;7.286;2022-12-29T10:21:12;10.60;99.90
34498;DHT22;20744;50.938;7.286;2022-12-29T10:23:44;10.50;99.90
34498;DHT22;20744;50.938;7.286;2022-12-29T10:26:15;10.60;99.90
34498;DHT22;20744;50.938;7.286;2022-12-29T10:28:46;10.60;99.90
34498;DHT22;20744;50.938;7.286;2022-12-29T10:31:18;10.60;99.90
34498;DHT22;20744;50.938;7.286;2022-12-29T10:33:49;10.60;99.90
34498;DHT22;20744;50.938;7.286;2022-12-29T10:36:22;10.60;99.90
34498;DHT22;20744;50.938;7.286;2022-12-29T10:38:58;10.60;99.90
34498;DHT22;20744;50.938;7.286;2022-12-29T10:41:34;10.60;99.90
34498;DHT22;20744;50.938;7.286;2022-12-29T10:44:03;10.60;99.90
34498;DHT22;20744;50.938;7.286;2022-12-29T10:46:34;10.60;99.90
34498;DHT22;20744;50.938;7.286;2022-12-29T10:49:04;10.70;99.90
34498;DHT22;20744;50.938;7.286;2022-12-29T10:51:35;10.70;99.90
34498;DHT22;20744;50.938;7.286;2022-12-29T10:54:05;10.70;99.90
34498;DHT22;20744;50.938;7.286;2022-12-29T10:56:35;10.70;99.90
34498;DHT22;20744;50.938;7.286;2022-12-29T10:59:07;10.70;99.90
34498;DHT22;20744;50.938;7.286;2022-12-29T11:01:40;10.70;99.90
34498;DHT22;20744;50.938;7.286;2022-12-29T11:04:26;10.70;99.90
34498;DHT22;20744;50.938;7.286;2022-12-29T11:06:56;10.70;99.90
34498;DHT22;20744;50.938;7.286;2022-12-29T11:09:27;10.70;99.90
34498;DHT22;20744;50.938;7.286;2022-12-29T11:11:55;10.70;99.90
34498;DHT22;20744;50.938;7.286;2022-12-29T11:14:27;10.70;99.90
34498;DHT22;20744;50.938;7.286;2022-12-29T11:16:59;10.60;99.90
34498;DHT22;20744;50.938;7.286;2022-12-29T11:19:29;10.60;99.90
34498;DHT22;20744;50.938;7.286;2022-12-29T11:22:13;10.70;99.90
34498;DHT22;20744;50.938;7.286;2022-12-29T11:24:44;10.70;99.90
34498;DHT22;20744;50.938;7.286;2022-12-29T11:27:16;10.80;99.90
34498;DHT22;20744;50.938;7.286;2022-12-29T11:29:44;10.80;99.90
34498;DHT22;20744;50.938;7.286;2022-12-29T11:32:13;10.90;99.90
34498;DHT22;20744;50.938;7.286;2022-12-29T11:34:45;10.90;99.90
34498;DHT22;20744;50.938;7.286;2022-12-29T11:37:15;10.90;99.90
34498;DHT22;20744;50.938;7.286;2022-12-29T11:39:49;10.90;99.90
34498;DHT22;20744;50.938;7.286;2022-12-29T11:42:20;10.80;99.90
34498;DHT22;20744;50.938;7.286;2022-12-29T11:44:50;10.80;99.90
34498;DHT22;20744;50.938;7.286;2022-12-29T11:47:27;10.80;99.90
34498;DHT22;20744;50.938;7.286;2022-12-29T11:49:59;10.90;99.90
34498;DHT22;20744;50.938;7.286;2022-12-29T11:52:28;10.90;99.90
34498;DHT22;20744;50.938;7.286;2022-12-29T11:55:00;11.00;99.90
34498;DHT22;20744;50.938;7.286;2022-12-29T11:57:28;11.00;99.90
34498;DHT22;20744;50.938;7.286;2022-12-29T12:00:01;11.10;99.90
34498;DHT22;20744;50.938;7.286;2022-12-29T12:02:53;11.00;99.90
34498;DHT22;20744;50.938;7.286;2022-12-29T12:05:35;11.00;99.90
34498;DHT22;20744;50.938;7.286;2022-12-29T12:08:11;10.90;99.90
34498;DHT22;20744;50.938;7.286;2022-12-29T12:10:44;11.00;99.90
34498;DHT22;20744;50.938;7.286;2022-12-29T12:13:20;10.90;99.90
34498;DHT22;20744;50.938;7.286;2022-12-29T12:15:49;10.90;99.90
34498;DHT22;20744;50.938;7.286;2022-12-29T12:18:24;10.90;99.90
34498;DHT22;20744;50.938;7.286;2022-12-29T12:21:04;10.90;99.90
34498;DHT22;20744;50.938;7.286;2022-12-29T12:23:39;10.90;99.90
34498;DHT22;20744;50.938;7.286;2022-12-29T12:26:11;10.80;99.90
34498;DHT22;20744;50.938;7.286;2022-12-29T12:28:45;10.90;99.90
34498;DHT22;20744;50.938;7.286;2022-12-29T12:31:21;10.90;99.90
34498;DHT22;20744;50.938;7.286;2022-12-29T12:33:55;10.80;99.90
34498;DHT22;20744;50.938;7.286;2022-12-29T12:36:49;10.90;99.90
34498;DHT22;20744;50.938;7.286;2022-12-29T12:39:26;10.90;99.90
34498;DHT22;20744;50.938;7.286;2022-12-29T12:42:03;10.80;99.90
34498;DHT22;20744;50.938;7.286;2022-12-29T12:44:38;10.80;99.90
34498;DHT22;20744;50.938;7.286;2022-12-29T12:47:20;10.80;99.90
34498;DHT22;20744;50.938;7.286;2022-12-29T12:50:11;10.80;99.90
34498;DHT22;20744;50.938;7.286;2022-12-29T12:53:08;10.80;99.90
34498;DHT22;20744;50.938;7.286;2022-12-29T12:55:49;10.80;99.90
34498;DHT22;20744;50.938;7.286;2022-12-29T12:58:26;10.80;99.90
34498;DHT22;20744;50.938;7.286;2022-12-29T13:01:07;10.80;99.90
34498;DHT22;20744;50.938;7.286;2022-12-29T13:03:48;10.80;99.90
34498;DHT22;20744;50.938;7.286;2022-12-29T13:06:24;10.80;99.90
34498;DHT22;20744;50.938;7.286;2022-12-29T13:09:18;10.80;99.90
34498;DHT22;20744;50.938;7.286;2022-12-29T13:11:55;10.90;99.90
34498;DHT22;20744;50.938;7.286;2022-12-29T13:14:36;10.90;99.90
34498;DHT22;20744;50.938;7.286;2022-12-29T13:17:10;10.90;99.90
34498;DHT22;20744;50.938;7.286;2022-12-29T13:19:41;11.00;99.90
34498;DHT22;20744;50.938;7.286;2022-12-29T13:22:15;11.00;99.90
34498;DHT22;20744;50.938;7.286;2022-12-29T13:24:55;10.90;99.90
34498;DHT22;20744;50.938;7.286;2022-12-29T13:27:30;10.90;99.90
34498;DHT22;20744;50.938;7.286;2022-12-29T13:30:02;10.90;99.90
34498;DHT22;20744;50.938;7.286;2022-12-29T13:32:45;10.90;99.90
34498;DHT22;20744;50.938;7.286;2022-12-29T13:35:34;10.90;99.90
34498;DHT22;20744;50.938;7.286;2022-12-29T13:38:10;10.80;99.90
34498;DHT22;20744;50.938;7.286;2022-12-29T13:40:43;10.80;99.90
34498;DHT22;20744;50.938;7.286;2022-12-29T13:43:12;10.70;99.90
34498;DHT22;20744;50.938;7.286;2022-12-29T13:45:41;10.70;99.90
34498;DHT22;20744;50.938;7.286;2022-12-29T13:48:14;10.70;99.90
34498;DHT22;20744;50.938;7.286;2022-12-29T13:50:46;10.70;99.90
34498;DHT22;20744;50.938;7.286;2022-12-29T13:53:23;10.70;99.90
34498;DHT22;20744;50.938;7.286;2022-12-29T13:55:56;10.70;99.90
34498;DHT22;20744;50.938;7.286;2022-12-29T13:58:30;10.60;99.90
34498;DHT22;20744;50.938;7.286;2022-12-29T14:01:03;10.60;99.90
34498;DHT22;20744;50.938;7.286;2022-12-29T14:03:50;10.60;99.90
34498;DHT22;20744;50.938;7.286;2022-12-29T14:06:23;10.60;99.90
34498;DHT22;20744;50.938;7.286;2022-12-29T14:08:53;10.60;99.90
34498;DHT22;20744;50.938;7.286;2022-12-29T14:11:24;10.70;99.90
34498;DHT22;20744;50.938;7.286;2022-12-29T14:13:55;10.60;99.90
34498;DHT22;20744;50.938;7.286;2022-12-29T14:16:31;10.60;99.90
34498;DHT22;20744;50.938;7.286;2022-12-29T14:19:11;10.60;99.90
34498;DHT22;20744;50.938;7.286;2022-12-29T14:21:39;10.60;99.90
34498;DHT22;20744;50.938;7.286;2022-12-29T14:24:37;10.50;99.90
34498;DHT22;20744;50.938;7.286;2022-12-29T14:30:46;10.60;99.90
34498;DHT22;20744;50.938;7.286;2022-12-29T14:33:14;10.50;99.90
34498;DHT22;20744;50.938;7.286;2022-12-29T14:35:43;10.50;99.90
34498;DHT22;20744;50.938;7.286;2022-12-29T14:38:17;10.40;99.90
34498;DHT22;20744;50.938;7.286;2022-12-29T14:40:45;10.20;99.90
34498;DHT22;20744;50.938;7.286;2022-12-29T14:43:16;10.00;99.90
34498;DHT22;20744;50.938;7.286;2022-12-29T14:45:52;9.90;99.90
34498;DHT22;20744;50.938;7.286;2022-12-29T14:48:32;9.80;99.90
34498;DHT22;20744;50.938;7.286;2022-12-29T14:51:00;9.70;99.90
34498;DHT22;20744;50.938;7.286;2022-12-29T14:53:44;9.50;99.90
34498;DHT22;20744;50.938;7.286;2022-12-29T14:56:13;9.50;99.90
34498;DHT22;20744;50.938;7.286;2022-12-29T14:58:46;9.40;99.90
34498;DHT22;20744;50.938;7.286;2022-12-29T15:01:32;9.40;99.90
34498;DHT22;20744;50.938;7.286;2022-12-29T15:04:12;9.40;99.90
34498;DHT22;20744;50.938;7.286;2022-12-29T15:06:40;9.30;99.90
34498;DHT22;20744;50.938;7.286;2022-12-29T15:09:14;9.30;99.90
34498;DHT22;20744;50.938;7.286;2022-12-29T15:11:48;9.00;99.90
34498;DHT22;20744;50.938;7.286;2022-12-29T15:14:29;9.30;99.90
34498;DHT22;20744;50.938;7.286;2022-12-29T15:19:25;9.30;99.90
34498;DHT22;20744;50.938;7.286;2022-12-29T15:21:53;9.20;99.90
34498;DHT22;20744;50.938;7.286;2022-12-29T15:24:21;9.20;99.90
34498;DHT22;20744;50.938;7.286;2022-12-29T15:26:50;9.30;99.90
34498;DHT22;20744;50.938;7.286;2022-12-29T15:29:33;9.30;99.90
34498;DHT22;20744;50.938;7.286;2022-12-29T15:32:20;9.40;99.90
34498;DHT22;20744;50.938;7.286;2022-12-29T15:34:48;9.40;99.90
34498;DHT22;20744;50.938;7.286;2022-12-29T15:42:27;9.30;99.90
34498;DHT22;20744;50.938;7.286;2022-12-29T15:44:56;9.30;99.90
34498;DHT22;20744;50.938;7.286;2022-12-29T15:47:26;9.20;99.90
34498;DHT22;20744;50.938;7.286;2022-12-29T15:50:00;9.10;99.90
34498;DHT22;20744;50.938;7.286;2022-12-29T16:24:51;8.30;99.90
34498;DHT22;20744;50.938;7.286;2022-12-29T16:27:23;8.40;99.90
34498;DHT22;20744;50.938;7.286;2022-12-29T16:35:07;8.40;99.90
34498;DHT22;20744;50.938;7.286;2022-12-29T16:37:36;8.40;99.90
34498;DHT22;20744;50.938;7.286;2022-12-29T16:40:26;8.40;99.90
34498;DHT22;20744;50.938;7.286;2022-12-29T16:42:58;8.40;99.90
34498;DHT22;20744;50.938;7.286;2022-12-29T16:53:32;8.00;99.90
34498;DHT22;20744;50.938;7.286;2022-12-29T16:56:05;7.90;99.90
34498;DHT22;20744;50.938;7.286;2022-12-29T16:58:34;7.80;99.90
34498;DHT22;20744;50.938;7.286;2022-12-29T17:01:04;7.70;99.90
34498;DHT22;20744;50.938;7.286;2022-12-29T17:03:47;7.70;99.90
34498;DHT22;20744;50.938;7.286;2022-12-29T17:08:44;7.50;99.90
34498;DHT22;20744;50.938;7.286;2022-12-29T17:11:30;7.50;99.90
34498;DHT22;20744;50.938;7.286;2022-12-29T17:14:21;7.50;99.90
34498;DHT22;20744;50.938;7.286;2022-12-29T17:16:49;7.50;99.90
34498;DHT22;20744;50.938;7.286;2022-12-29T17:19:17;7.50;99.90
34498;DHT22;20744;50.938;7.286;2022-12-29T17:21:46;7.50;99.90
34498;DHT22;20744;50.938;7.286;2022-12-29T17:24:16;7.50;99.90
34498;DHT22;20744;50.938;7.286;2022-12-29T17:26:45;7.50;99.90
34498;DHT22;20744;50.938;7.286;2022-12-29T17:29:19;7.50;99.90
34498;DHT22;20744;50.938;7.286;2022-12-29T17:31:47;7.50;99.90
34498;DHT22;20744;50.938;7.286;2022-12-29T17:34:14;7.40;99.90
34498;DHT22;20744;50.938;7.286;2022-12-29T17:36:41;7.40;99.90
34498;DHT22;20744;50.938;7.286;2022-12-29T17:39:10;7.40;99.90
34498;DHT22;20744;50.938;7.286;2022-12-29T17:41:36;7.40;99.90
34498;DHT22;20744;50.938;7.286;2022-12-29T17:44:04;7.40;99.90
34498;DHT22;20744;50.938;7.286;2022-12-29T17:46:32;7.50;99.90
34498;DHT22;20744;50.938;7.286;2022-12-29T17:48:59;7.50;99.90
34498;DHT22;20744;50.938;7.286;2022-12-29T17:51:26;7.50;99.90
34498;DHT22;20744;50.938;7.286;2022-12-29T17:53:53;7.60;99.90
34498;DHT22;20744;50.938;7.286;2022-12-29T17:56:21;7.70;99.90
34498;DHT22;20744;50.938;7.286;2022-12-29T17:58:48;7.70;99.90
34498;DHT22;20744;50.938;7.286;2022-12-29T18:01:16;7.80;99.90
34498;DHT22;20744;50.938;7.286;2022-12-29T18:03:46;7.80;99.90
34498;DHT22;20744;50.938;7.286;2022-12-29T18:06:13;7.80;99.90
34498;DHT22;20744;50.938;7.286;2022-12-29T18:08:40;7.80;99.90
34498;DHT22;20744;50.938;7.286;2022-12-29T18:11:21;7.70;99.90
34498;DHT22;20744;50.938;7.286;2022-12-29T18:13:49;7.60;99.90
34498;DHT22;20744;50.938;7.286;2022-12-29T18:16:15;7.60;99.90
34498;DHT22;20744;50.938;7.286;2022-12-29T18:18:42;7.50;99.90
34498;DHT22;20744;50.938;7.286;2022-12-29T18:21:15;7.60;99.90
34498;DHT22;20744;50.938;7.286;2022-12-29T18:23:42;7.70;99.90
34498;DHT22;20744;50.938;7.286;2022-12-29T18:28:44;7.70;99.90
34498;DHT22;20744;50.938;7.286;2022-12-29T18:31:17;7.70;99.90
34498;DHT22;20744;50.938;7.286;2022-12-29T18:33:45;7.60;99.90
34498;DHT22;20744;50.938;7.286;2022-12-29T18:36:13;7.60;99.90
34498;DHT22;20744;50.938;7.286;2022-12-29T18:38:40;7.50;99.90
34498;DHT22;20744;50.938;7.286;2022-12-29T18:41:14;7.50;99.90